Time;durP1;ratioP1;P1;durP2;ratioP2;P2;SDS_P1;SDS_P2;PMS_P1;PMS_P2;Temp;Humidity;BMP_temperature;BMP_pressure;BME280_temperature;BME280_humidity;BME280_pressure;Samples;Min_cycle;Max_cycle;Signal;HPM_P1;HPM_P2
2022/03/26 00:00:11;;;;;;;;;60.00;43.00;;;;;13.49;40.62;102469.03;5050261;28;45338;-59
2022/03/26 00:02:37;;;;;;;;;54.50;40.50;;;;;13.46;40.57;102467.38;5049131;28;45338;-59
2022/03/26 00:05:03;;;;;;;;;58.25;43.75;;;;;13.43;40.71;102472.84;5048057;28;45442;-59
2022/03/26 00:07:29;;;;;;;;;56.75;41.00;;;;;13.39;40.65;102466.78;5050174;28;45627;-59
2022/03/26 00:09:54;;;;;;;;;54.50;41.50;;;;;13.35;41.14;102464.34;5049512;28;45507;-56
2022/03/26 00:12:20;;;;;;;;;58.75;40.50;;;;;13.32;40.93;102467.97;5047766;28;45439;-56
2022/03/26 00:14:45;;;;;;;;;56.25;43.75;;;;;13.30;41.09;102463.69;5049155;28;45565;-57
2022/03/26 00:17:11;;;;;;;;;57.50;41.25;;;;;13.27;41.15;102471.75;5046416;28;45462;-57
2022/03/26 00:19:37;;;;;;;;;57.00;41.50;;;;;13.23;41.06;102471.03;5049492;28;45497;-57
2022/03/26 00:22:03;;;;;;;;;53.00;41.50;;;;;13.22;41.23;102473.75;5048242;28;45375;-57
2022/03/26 00:24:28;;;;;;;;;56.00;43.50;;;;;13.17;41.50;102470.38;5048768;28;45576;-56
2022/03/26 00:26:54;;;;;;;;;59.25;44.25;;;;;13.13;41.33;102472.31;5049716;28;45566;-57
2022/03/26 00:29:20;;;;;;;;;53.75;39.00;;;;;13.10;41.72;102467.13;5049115;28;46437;-57
2022/03/26 00:31:46;;;;;;;;;53.50;41.00;;;;;13.08;41.70;102469.00;5049657;28;45162;-57
2022/03/26 00:34:12;;;;;;;;;57.25;43.25;;;;;13.02;41.88;102462.16;5052412;28;45423;-58
2022/03/26 00:36:38;;;;;;;;;60.50;43.00;;;;;13.01;41.71;102462.25;5054087;28;45911;-58
2022/03/26 00:39:04;;;;;;;;;55.25;42.50;;;;;12.98;41.95;102471.16;5051823;28;45313;-59
2022/03/26 00:41:30;;;;;;;;;58.75;44.00;;;;;12.95;41.98;102465.13;5035422;28;45422;-58
2022/03/26 00:43:58;;;;;;;;;58.00;42.00;;;;;12.93;41.94;102470.50;5051074;28;45382;-58
2022/03/26 00:46:24;;;;;;;;;53.25;40.00;;;;;12.91;42.35;102463.56;5053824;28;45439;-58
2022/03/26 00:48:51;;;;;;;;;57.50;45.25;;;;;12.87;42.24;102468.09;5047702;28;45836;-59
2022/03/26 00:51:18;;;;;;;;;56.75;42.25;;;;;12.84;42.42;102460.28;5050369;28;45508;-59
2022/03/26 00:53:45;;;;;;;;;61.25;44.75;;;;;12.83;42.15;102466.50;5049863;28;45560;-60
2022/03/26 00:56:11;;;;;;;;;56.50;44.25;;;;;12.81;42.36;102463.94;5053840;28;45454;-59
2022/03/26 00:58:37;;;;;;;;;49.50;37.25;;;;;12.78;42.65;102463.19;5056955;28;46219;-59
2022/03/26 01:01:03;;;;;;;;;50.75;40.00;;;;;12.73;42.42;102466.03;5050766;28;45435;-58
2022/03/26 01:03:28;;;;;;;;;55.25;43.00;;;;;12.70;42.52;102470.56;5051498;28;45463;-59
2022/03/26 01:05:54;;;;;;;;;58.25;42.50;;;;;12.65;42.66;102468.13;5053708;28;45703;-59
2022/03/26 01:08:19;;;;;;;;;50.00;36.75;;;;;12.62;43.04;102460.31;5040483;28;45965;-60
2022/03/26 01:10:46;;;;;;;;;48.25;37.75;;;;;12.59;42.91;102465.72;5050774;28;45242;-59
2022/03/26 01:13:14;;;;;;;;;46.75;32.75;;;;;12.55;42.91;102464.97;5051933;28;45636;-60
2022/03/26 01:15:39;;;;;;;;;56.00;41.25;;;;;12.53;42.99;102463.31;5052265;28;45532;-59
2022/03/26 01:18:06;;;;;;;;;57.50;41.75;;;;;12.54;42.86;102459.75;5053100;28;45425;-62
2022/03/26 01:20:32;;;;;;;;;57.75;46.25;;;;;12.48;43.18;102450.31;5050988;28;45242;-58
2022/03/26 01:22:58;;;;;;;;;52.75;43.00;;;;;12.48;43.03;102457.34;5051318;28;45385;-61
2022/03/26 01:25:26;;;;;;;;;55.25;43.00;;;;;12.45;43.36;102455.69;5039125;28;45418;-60
2022/03/26 01:27:52;;;;;;;;;54.25;41.25;;;;;12.43;43.48;102451.41;5037061;28;47102;-60
2022/03/26 01:30:18;;;;;;;;;56.75;40.75;;;;;12.40;43.06;102448.84;5052101;28;45375;-62
2022/03/26 01:32:44;;;;;;;;;58.25;44.25;;;;;12.38;43.48;102458.63;5050245;28;45303;-61
2022/03/26 01:35:12;;;;;;;;;51.50;37.75;;;;;12.34;43.69;102452.63;5051066;28;45682;-60
2022/03/26 01:37:37;;;;;;;;;53.75;41.75;;;;;12.30;43.44;102443.09;5049910;28;45652;-61
2022/03/26 01:40:05;;;;;;;;;58.25;43.00;;;;;12.29;43.41;102449.28;5053661;28;45499;-61
2022/03/26 01:42:31;;;;;;;;;56.50;44.75;;;;;12.25;43.65;102453.00;5050643;28;45385;-59
2022/03/26 01:44:56;;;;;;;;;61.00;44.00;;;;;12.22;43.95;102448.66;5051322;28;45464;-60
2022/03/26 01:47:22;;;;;;;;;59.50;44.50;;;;;12.19;43.74;102440.00;5050597;28;46195;-58
2022/03/26 01:49:48;;;;;;;;;57.50;45.50;;;;;12.16;43.79;102442.75;5052801;28;45654;-58
2022/03/26 01:52:13;;;;;;;;;56.75;42.50;;;;;12.13;44.07;102438.47;5050216;28;45377;-59
2022/03/26 01:54:40;;;;;;;;;58.50;43.50;;;;;12.12;44.15;102438.53;5049904;28;45959;-58
2022/03/26 01:57:07;;;;;;;;;56.00;41.25;;;;;12.08;44.03;102443.03;5053179;28;45402;-59
2022/03/26 01:59:33;;;;;;;;;56.00;42.75;;;;;12.08;44.47;102439.53;5053795;28;45230;-62
2022/03/26 02:01:59;;;;;;;;;59.75;46.00;;;;;12.01;44.06;102423.97;5052360;28;45300;-61
2022/03/26 02:04:24;;;;;;;;;57.25;43.50;;;;;11.98;44.47;102431.97;5050235;28;45440;-59
2022/03/26 02:06:50;;;;;;;;;58.50;44.50;;;;;11.98;44.13;102436.41;5050219;28;46241;-57
2022/03/26 02:09:16;;;;;;;;;55.75;43.00;;;;;11.94;44.67;102434.81;5051257;28;45476;-58
2022/03/26 02:11:43;;;;;;;;;62.50;44.50;;;;;11.90;44.73;102435.84;5050729;28;45350;-58
2022/03/26 02:14:10;;;;;;;;;61.25;45.25;;;;;11.84;44.82;102425.50;5051861;28;45570;-58
2022/03/26 02:16:37;;;;;;;;;59.50;45.50;;;;;11.80;44.97;102426.50;5051145;28;47693;-59
2022/03/26 02:19:05;;;;;;;;;58.50;42.75;;;;;11.73;44.80;102425.88;5049397;28;45572;-57
2022/03/26 02:21:34;;;;;;;;;64.50;44.00;;;;;11.69;45.42;102427.78;5050650;28;45502;-58
2022/03/26 02:24:00;;;;;;;;;57.75;40.00;;;;;11.68;45.00;102419.88;5050102;28;45530;-56
2022/03/26 02:26:26;;;;;;;;;61.00;46.50;;;;;11.66;44.98;102424.38;5051600;28;47292;-56
2022/03/26 02:28:56;;;;;;;;;64.25;46.00;;;;;11.62;45.12;102420.13;5049052;28;45407;-57
2022/03/26 02:31:23;;;;;;;;;57.25;44.50;;;;;11.59;45.44;102417.59;5050522;28;45457;-60
2022/03/26 02:33:50;;;;;;;;;56.50;44.50;;;;;11.59;45.38;102421.09;5035879;28;45634;-59
2022/03/26 02:36:16;;;;;;;;;54.00;45.50;;;;;11.58;45.30;102416.72;5041996;28;46651;-59
2022/03/26 02:38:42;;;;;;;;;60.00;44.50;;;;;11.53;45.71;102418.66;5033721;28;46519;-61
2022/03/26 02:41:10;;;;;;;;;52.00;39.00;;;;;11.49;45.69;102422.34;5040246;28;45454;-57
2022/03/26 02:43:37;;;;;;;;;62.25;46.00;;;;;11.47;45.62;102424.19;5033535;28;45570;-60
2022/03/26 02:46:03;;;;;;;;;57.50;42.75;;;;;11.43;45.66;102423.41;5049783;28;45394;-59
2022/03/26 02:48:29;;;;;;;;;61.50;47.00;;;;;11.40;46.50;102420.06;5051017;28;45459;-58
2022/03/26 02:50:55;;;;;;;;;58.00;45.50;;;;;11.35;46.15;102414.94;5049348;28;45383;-59
2022/03/26 02:53:20;;;;;;;;;57.50;43.50;;;;;11.29;46.12;102406.38;5048868;28;45555;-58
2022/03/26 02:55:47;;;;;;;;;54.50;45.50;;;;;11.28;46.05;102416.06;5050628;28;46097;-58
2022/03/26 02:58:12;;;;;;;;;61.50;43.75;;;;;11.28;46.09;102423.09;5051901;28;45423;-58
2022/03/26 03:00:38;;;;;;;;;61.25;46.50;;;;;11.24;46.11;102417.09;5050620;28;45446;-58
2022/03/26 03:03:06;;;;;;;;;59.50;46.25;;;;;11.22;46.27;102413.66;5049609;28;45567;-58
2022/03/26 03:05:33;;;;;;;;;58.75;45.25;;;;;11.18;46.68;102418.16;5048348;28;45531;-58
2022/03/26 03:07:59;;;;;;;;;60.25;45.00;;;;;11.16;46.41;102406.81;5050229;28;45740;-58
2022/03/26 03:10:25;;;;;;;;;63.25;45.50;;;;;11.15;46.75;102405.09;5061915;28;45380;-58
2022/03/26 03:12:50;;;;;;;;;61.00;47.25;;;;;11.14;46.50;102410.44;5040511;28;45352;-58
2022/03/26 03:15:19;;;;;;;;;59.75;47.00;;;;;11.12;46.73;102406.97;5053051;28;45411;-58
2022/03/26 03:17:46;;;;;;;;;60.00;45.50;;;;;11.09;47.02;102405.28;5049797;28;45510;-58
2022/03/26 03:20:14;;;;;;;;;56.50;44.00;;;;;11.08;47.00;102403.59;5053103;28;45356;-59
2022/03/26 03:22:41;;;;;;;;;59.75;46.25;;;;;11.08;47.04;102398.31;5058591;28;45474;-59
2022/03/26 03:25:07;;;;;;;;;67.50;47.75;;;;;11.06;47.05;102410.69;5053665;28;45546;-59
2022/03/26 03:27:34;;;;;;;;;41.50;29.00;;;;;11.05;47.12;102408.09;5047112;28;45265;-59
2022/03/26 03:29:59;;;;;;;;;53.00;41.75;;;;;11.02;46.87;102411.69;5040134;28;45356;-59
2022/03/26 03:32:26;;;;;;;;;57.00;44.25;;;;;10.99;47.17;102400.41;5040403;28;45258;-59
2022/03/26 03:34:52;;;;;;;;;64.50;45.75;;;;;10.97;47.30;102407.47;5040281;28;45631;-58
2022/03/26 03:37:18;;;;;;;;;61.00;44.50;;;;;10.94;47.04;102402.31;5040251;28;45424;-58
2022/03/26 03:39:43;;;;;;;;;67.00;47.33;;;;;10.91;46.99;102405.94;5049383;28;45443;-58
2022/03/26 03:42:09;;;;;;;;;60.50;45.00;;;;;10.92;46.98;102409.44;5042188;28;45360;-58
2022/03/26 03:44:35;;;;;;;;;63.33;48.33;;;;;10.93;47.27;102408.53;5040287;28;45385;-59
2022/03/26 03:47:01;;;;;;;;;62.00;45.33;;;;;10.92;47.32;102418.22;5040010;28;45307;-59
2022/03/26 03:49:26;;;;;;;;;56.25;44.75;;;;;10.88;47.33;102411.28;5040005;28;45448;-58
2022/03/26 03:51:53;;;;;;;;;57.25;42.25;;;;;10.85;47.66;102414.06;5040314;28;45563;-59
2022/03/26 03:54:19;;;;;;;;;64.00;48.00;;;;;10.84;47.44;102418.47;5040407;28;46169;-58
2022/03/26 03:56:44;;;;;;;;;56.25;44.25;;;;;10.80;47.15;102416.81;5040223;28;45455;-58
2022/03/26 03:59:12;;;;;;;;;62.25;44.50;;;;;10.77;47.23;102419.56;5051778;28;45184;-58
2022/03/26 04:01:37;;;;;;;;;58.75;47.50;;;;;10.76;47.72;102425.75;5041886;28;45448;-58
2022/03/26 04:04:03;;;;;;;;;62.25;46.50;;;;;10.74;47.31;102416.16;5039936;28;45999;-58
2022/03/26 04:06:29;;;;;;;;;65.67;48.33;;;;;10.72;47.45;102418.84;5041104;28;45441;-58
2022/03/26 04:08:54;;;;;;;;;58.50;43.75;;;;;10.72;47.82;102426.75;5043801;28;45291;-58
2022/03/26 04:11:19;;;;;;;;;66.25;48.50;;;;;10.73;47.64;102422.34;5043640;28;45249;-58
2022/03/26 04:13:46;;;;;;;;;67.00;50.00;;;;;10.70;47.54;102420.69;5043658;28;45478;-58
2022/03/26 04:16:12;;;;;;;;;61.00;48.67;;;;;10.68;47.96;102426.94;5060980;28;45651;-59
2022/03/26 04:18:38;;;;;;;;;60.00;46.00;;;;;10.66;48.17;102429.59;5063876;28;45352;-58
2022/03/26 04:21:04;;;;;;;;;63.00;47.67;;;;;10.65;47.73;102430.50;5063745;28;45573;-58
2022/03/26 04:23:29;;;;;;;;;61.00;46.67;;;;;10.63;48.02;102429.69;5053102;28;46473;-58
2022/03/26 04:25:55;;;;;;;;;63.00;47.33;;;;;10.66;47.75;102434.00;5043394;28;45302;-58
2022/03/26 04:28:20;;;;;;;;;63.00;48.00;;;;;10.60;48.00;102430.69;5043684;28;45604;-58
2022/03/26 04:30:46;;;;;;;;;56.25;43.00;;;;;10.60;47.66;102432.44;5043443;28;45662;-58
2022/03/26 04:33:12;;;;;;;;;60.25;47.00;;;;;10.59;47.63;102434.22;5043005;28;45517;-58
2022/03/26 04:35:38;;;;;;;;;63.00;48.67;;;;;10.59;47.71;102428.94;5043133;28;45396;-59
2022/03/26 04:38:03;;;;;;;;;66.00;48.00;;;;;10.56;47.82;102430.81;5043383;28;45325;-58
2022/03/26 04:40:29;;;;;;;;;70.00;47.75;;;;;10.56;47.83;102422.91;5054579;28;45449;-58
2022/03/26 04:42:55;;;;;;;;;58.67;46.67;;;;;10.53;48.32;102429.16;5043225;28;46118;-58
2022/03/26 04:45:22;;;;;;;;;63.25;47.50;;;;;10.51;48.18;102427.47;5043054;28;45368;-59
2022/03/26 04:47:47;;;;;;;;;64.33;49.00;;;;;10.51;47.89;102430.13;5042572;28;45242;-59
2022/03/26 04:50:13;;;;;;;;;62.25;46.75;;;;;10.48;48.37;102428.41;5043147;28;45575;-58
2022/03/26 04:52:39;;;;;;;;;63.67;47.00;;;;;10.47;48.42;102428.47;5042958;28;45321;-58
2022/03/26 04:55:09;;;;;;;;;64.75;47.75;;;;;10.48;48.14;102436.31;5042953;28;45514;-58
2022/03/26 04:57:43;;;;;;;;;65.00;47.00;;;;;10.48;48.27;102435.47;5043270;28;45450;-58
2022/03/26 05:00:11;;;;;;;;;68.67;49.00;;;;;10.47;48.16;102434.59;5042869;28;45490;-58
2022/03/26 05:02:38;;;;;;;;;61.67;47.33;;;;;10.47;48.38;102431.09;5042746;28;46140;-59
2022/03/26 05:05:05;;;;;;;;;65.25;47.75;;;;;10.46;47.97;102422.34;5042639;28;45226;-59
2022/03/26 05:07:46;;;;;;;;;64.75;46.50;;;;;10.46;48.18;102426.75;5043057;28;45214;-58
2022/03/26 05:10:21;;;;;;;;;65.33;51.00;;;;;10.46;48.57;102437.28;5049271;28;45313;-58
2022/03/26 05:12:48;;;;;;;;;62.50;46.75;;;;;10.42;48.27;102431.25;5060964;28;45679;-58
2022/03/26 05:15:15;;;;;;;;;67.25;50.00;;;;;10.40;48.22;102438.34;5059950;28;45436;-59
2022/03/26 05:17:41;;;;;;;;;62.50;46.00;;;;;10.40;48.60;102433.06;5062274;28;45233;-58
2022/03/26 05:20:08;;;;;;;;;61.50;46.25;;;;;10.40;48.26;102435.69;5062868;28;45584;-58
2022/03/26 05:22:35;;;;;;;;;64.25;49.25;;;;;10.39;48.20;102443.66;5059580;28;45492;-58
2022/03/26 05:25:00;;;;;;;;;67.33;48.00;;;;;10.37;48.38;102446.34;5042565;28;45273;-58
2022/03/26 05:27:26;;;;;;;;;66.33;46.00;;;;;10.37;48.23;102445.50;5042662;28;45372;-58
2022/03/26 05:29:52;;;;;;;;;67.00;49.33;;;;;10.34;48.75;102444.66;5042590;28;45323;-58
2022/03/26 05:32:17;;;;;;;;;67.00;49.00;;;;;10.35;48.58;102456.06;5042131;28;45519;-58
2022/03/26 05:34:44;;;;;;;;;67.67;49.33;;;;;10.33;48.35;102452.59;5042247;28;45249;-58
2022/03/26 05:37:10;;;;;;;;;70.33;49.00;;;;;10.36;48.37;102455.16;5042485;28;45414;-58
2022/03/26 05:39:35;;;;;;;;;57.33;46.00;;;;;10.38;48.35;102457.75;5050286;28;45249;-58
2022/03/26 05:42:01;;;;;;;;;68.67;49.00;;;;;10.35;48.86;102461.34;5046582;28;45432;-58
2022/03/26 05:44:26;;;;;;;;;67.67;50.00;;;;;10.32;48.74;102467.53;5042509;28;45265;-58
2022/03/26 05:46:52;;;;;;;;;66.00;50.67;;;;;10.32;48.44;102466.69;5042329;28;45403;-58
2022/03/26 05:49:17;;;;;;;;;68.33;53.00;;;;;10.32;48.37;102464.06;5041905;28;45533;-58
2022/03/26 05:51:44;;;;;;;;;59.67;48.33;;;;;10.28;48.59;102460.66;5041951;28;46019;-59
2022/03/26 05:54:09;;;;;;;;;60.00;47.33;;;;;10.28;48.79;102455.41;5041976;28;45266;-58
2022/03/26 05:56:36;;;;;;;;;67.67;51.00;;;;;10.25;48.94;102452.84;5042128;28;45510;-59
2022/03/26 05:59:11;;;;;;;;;72.00;50.00;;;;;10.28;48.68;102459.81;5042258;28;45312;-59
2022/03/26 06:01:37;;;;;;;;;63.75;52.25;;;;;10.30;48.62;102460.63;5041656;28;45352;-59
2022/03/26 06:04:03;;;;;;;;;63.00;50.00;;;;;10.30;48.79;102461.47;5041809;28;45288;-58
2022/03/26 06:06:29;;;;;;;;;70.00;49.00;;;;;10.30;48.75;102465.88;5041934;28;45229;-58
2022/03/26 06:08:54;;;;;;;;;67.75;51.50;;;;;10.30;49.08;102464.09;5042087;28;45518;-58
2022/03/26 06:11:20;;;;;;;;;64.33;47.67;;;;;10.32;48.99;102472.81;5041481;28;46023;-58
2022/03/26 06:13:46;;;;;;;;;63.67;47.33;;;;;10.33;48.55;102474.53;5041842;28;45305;-58
2022/03/26 06:16:11;;;;;;;;;69.00;52.67;;;;;10.39;49.09;102476.13;5040599;28;45274;-58
2022/03/26 06:18:37;;;;;;;;;67.67;49.67;;;;;10.44;49.11;102492.66;5061797;28;45491;-58
2022/03/26 06:21:05;;;;;;;;;66.00;48.67;;;;;10.53;48.44;102494.16;5061663;28;45406;-58
2022/03/26 06:23:31;;;;;;;;;66.67;52.00;;;;;10.65;48.67;102482.34;5051326;28;45300;-58
2022/03/26 06:25:57;;;;;;;;;72.00;46.67;;;;;10.74;48.15;102484.69;5041584;28;45265;-58
2022/03/26 06:28:22;;;;;;;;;65.67;48.00;;;;;10.85;48.49;102490.50;5041578;28;45317;-58
2022/03/26 06:30:48;;;;;;;;;67.67;50.33;;;;;10.95;48.29;102493.69;5040792;28;45720;-58
2022/03/26 06:33:15;;;;;;;;;65.67;46.67;;;;;11.06;47.94;102499.47;5041200;28;45451;-59
2022/03/26 06:35:45;;;;;;;;;62.00;47.67;;;;;11.13;47.78;102501.00;5041519;28;45253;-59
2022/03/26 06:38:11;;;;;;;;;73.67;53.33;;;;;11.22;47.96;102508.63;5041465;28;45270;-59
2022/03/26 06:40:37;;;;;;;;;60.00;46.00;;;;;11.34;47.62;102508.19;5053246;28;45635;-59
2022/03/26 06:43:04;;;;;;;;;69.00;53.67;;;;;11.46;47.20;102509.56;5023402;28;45340;-59
2022/03/26 06:45:30;;;;;;;;;66.00;51.00;;;;;11.55;46.99;102511.88;5041116;28;45293;-59
2022/03/26 06:47:55;;;;;;;;;67.67;51.67;;;;;11.62;47.02;102518.66;5040732;28;45494;-59
2022/03/26 06:50:21;;;;;;;;;67.25;47.50;;;;;11.61;46.89;102514.31;5040945;28;46194;-59
2022/03/26 06:52:46;;;;;;;;;70.00;52.00;;;;;11.66;47.01;102514.97;5043995;28;45328;-59
2022/03/26 06:55:12;;;;;;;;;62.75;48.50;;;;;11.72;46.86;102519.19;5043350;28;47026;-59
2022/03/26 06:57:37;;;;;;;;;65.00;47.50;;;;;11.74;46.53;102520.00;5046076;28;45744;-58
2022/03/26 07:00:05;;;;;;;;;60.00;45.75;;;;;11.72;46.41;102519.19;5048567;28;46795;-58
2022/03/26 07:02:31;;;;;;;;;66.50;49.00;;;;;11.74;46.36;102520.00;5043875;28;45407;-58
2022/03/26 07:04:57;;;;;;;;;70.00;50.25;;;;;11.77;46.51;102516.38;5050133;28;45396;-59
2022/03/26 07:07:23;;;;;;;;;48.50;35.75;;;;;11.83;46.81;102524.09;5046616;28;45624;-59
2022/03/26 07:09:48;;;;;;;;;62.00;49.25;;;;;11.90;46.40;102522.97;5048980;28;45585;-59
2022/03/26 07:12:14;;;;;;;;;62.50;47.00;;;;;11.88;46.41;102524.81;5047387;28;45686;-59
2022/03/26 07:14:40;;;;;;;;;56.00;42.75;;;;;11.92;46.32;102536.97;5049686;28;45407;-58
2022/03/26 07:17:05;;;;;;;;;64.50;49.50;;;;;11.95;46.09;102536.88;5031778;28;46190;-59
2022/03/26 07:19:32;;;;;;;;;66.67;49.67;;;;;11.96;45.97;102534.19;5044555;28;45269;-59
2022/03/26 07:21:57;;;;;;;;;61.25;48.25;;;;;11.98;45.86;102537.63;5048628;28;45483;-59
2022/03/26 07:24:23;;;;;;;;;68.00;50.00;;;;;12.03;45.87;102545.38;5049727;28;45408;-59
2022/03/26 07:26:48;;;;;;;;;66.50;49.25;;;;;12.05;45.80;102543.56;5046748;28;45713;-58
2022/03/26 07:29:14;;;;;;;;;61.50;47.75;;;;;12.09;45.85;102542.53;5048977;28;45607;-58
2022/03/26 07:31:39;;;;;;;;;63.25;50.00;;;;;12.14;45.61;102552.91;5047406;28;45382;-59
2022/03/26 07:34:05;;;;;;;;;63.50;50.25;;;;;12.17;45.50;102553.69;5049619;28;45557;-59
2022/03/26 07:36:32;;;;;;;;;65.50;50.00;;;;;12.23;45.46;102552.56;5046956;28;45398;-59
2022/03/26 07:38:58;;;;;;;;;65.00;46.00;;;;;12.27;45.25;102552.41;5048790;28;46339;-58
2022/03/26 07:41:24;;;;;;;;;62.25;46.00;;;;;12.28;45.07;102550.63;5050157;28;45405;-59
2022/03/26 07:43:50;;;;;;;;;62.00;45.50;;;;;12.28;45.26;102554.13;5047700;28;45418;-58
2022/03/26 07:46:18;;;;;;;;;57.50;43.00;;;;;12.30;45.60;102559.34;5047899;28;45689;-58
2022/03/26 07:48:45;;;;;;;;;59.50;46.75;;;;;12.33;45.19;102561.03;5047871;28;46598;-59
2022/03/26 07:51:10;;;;;;;;;63.25;47.25;;;;;12.36;45.05;102548.56;5044319;28;45343;-59
2022/03/26 07:53:36;;;;;;;;;61.25;45.00;;;;;12.38;44.78;102554.63;5050398;28;45747;-59
2022/03/26 07:56:02;;;;;;;;;58.75;41.50;;;;;12.41;45.13;102548.41;5047931;28;45882;-62
2022/03/26 07:58:27;;;;;;;;;62.00;46.75;;;;;12.51;44.64;102553.25;5060053;28;45354;-61
2022/03/26 08:00:53;;;;;;;;;64.75;46.75;;;;;12.58;44.90;102556.53;5060648;28;45322;-60
2022/03/26 08:03:18;;;;;;;;;64.00;48.75;;;;;12.61;44.76;102561.69;5055312;28;45398;-59
2022/03/26 08:05:44;;;;;;;;;62.25;44.50;;;;;12.68;44.57;102565.81;5049106;28;45624;-59
2022/03/26 08:08:09;;;;;;;;;57.50;46.50;;;;;12.73;44.18;102558.59;5048724;28;45934;-60
2022/03/26 08:10:35;;;;;;;;;56.00;41.50;;;;;12.81;43.74;102566.22;5049108;28;45330;-60
2022/03/26 08:13:00;;;;;;;;;60.00;43.25;;;;;12.84;43.87;102564.31;5047481;28;45309;-59
2022/03/26 08:15:26;;;;;;;;;59.50;46.75;;;;;12.90;43.62;102565.00;5047964;28;45546;-59
2022/03/26 08:17:51;;;;;;;;;57.50;46.25;;;;;12.94;43.93;102562.16;5053689;28;46633;-59
2022/03/26 08:20:17;;;;;;;;;62.50;46.25;;;;;13.02;43.79;102568.00;5050663;28;45586;-59
2022/03/26 08:22:42;;;;;;;;;61.00;44.25;;;;;13.07;43.21;102562.53;5050301;28;45403;-59
2022/03/26 08:26:19;;;;;;;;;63.00;47.00;;;;;13.09;43.27;102556.22;5047753;28;45606;-59
2022/03/26 08:27:57;;;;;;;;;56.50;45.00;;;;;13.19;43.12;102569.09;5048090;28;45977;-59
2022/03/26 08:30:22;;;;;;;;;53.25;41.00;;;;;13.28;42.91;102571.41;5047997;28;45398;-60
2022/03/26 08:32:48;;;;;;;;;64.50;49.00;;;;;13.32;42.70;102567.69;5048859;28;45224;-58
2022/03/26 08:35:14;;;;;;;;;63.50;46.25;;;;;13.41;42.98;102562.00;5044236;28;45430;-58
2022/03/26 08:37:40;;;;;;;;;63.00;44.75;;;;;13.55;42.42;102558.78;5049813;28;45347;-58
2022/03/26 08:40:06;;;;;;;;;51.00;40.50;;;;;13.65;42.24;102565.41;5049236;28;45312;-58
2022/03/26 08:42:32;;;;;;;;;58.75;43.50;;;;;13.75;42.25;102565.91;5048474;28;45315;-57
2022/03/26 08:44:57;;;;;;;;;55.50;42.00;;;;;13.88;42.10;102561.75;5049422;28;45353;-58
2022/03/26 08:47:23;;;;;;;;;58.75;44.25;;;;;14.00;41.92;102563.03;5059446;28;46224;-58
2022/03/26 08:49:48;;;;;;;;;45.50;37.75;;;;;14.13;41.76;102570.34;5058962;28;45303;-58
2022/03/26 08:52:14;;;;;;;;;51.50;39.50;;;;;14.28;41.28;102563.47;5068654;28;45406;-58
2022/03/26 08:54:39;;;;;;;;;57.25;43.25;;;;;14.39;41.30;102566.53;5067589;28;45240;-58
2022/03/26 08:57:05;;;;;;;;;52.00;39.00;;;;;14.49;40.63;102565.19;5059901;28;45446;-58
2022/03/26 08:59:30;;;;;;;;;47.00;30.00;;;;;14.59;40.65;102570.06;5055906;28;45456;-58
2022/03/26 09:01:56;;;;;;;;;52.50;39.75;;;;;14.68;40.33;102565.19;5060913;28;45383;-58
2022/03/26 09:04:21;;;;;;;;;52.50;40.00;;;;;14.77;39.91;102555.91;5047858;28;45485;-59
2022/03/26 09:06:47;;;;;;;;;39.25;34.50;;;;;14.84;39.64;102565.31;5052847;28;45413;-58
2022/03/26 09:09:15;;;;;;;;;50.75;38.00;;;;;14.91;39.86;102564.06;5049329;28;45345;-58
2022/03/26 09:11:43;;;;;;;;;48.50;40.25;;;;;15.02;39.34;102559.13;5044542;28;45392;-59
2022/03/26 09:14:09;;;;;;;;;50.50;42.00;;;;;15.15;39.54;102563.81;5057345;28;45451;-59
2022/03/26 09:16:34;;;;;;;;;47.00;37.00;;;;;15.26;39.03;102557.06;5048602;28;45503;-59
2022/03/26 09:19:00;;;;;;;;;56.25;41.50;;;;;15.33;38.86;102561.13;5052123;28;45459;-58
2022/03/26 09:21:25;;;;;;;;;51.00;39.50;;;;;15.36;38.60;102560.09;5053159;28;45487;-59
2022/03/26 09:23:51;;;;;;;;;50.50;36.00;;;;;15.43;38.49;102561.50;5058947;28;45535;-58
2022/03/26 09:26:16;;;;;;;;;47.25;39.25;;;;;15.54;38.13;102560.97;5061034;28;45602;-59
2022/03/26 09:28:42;;;;;;;;;53.75;39.25;;;;;15.58;38.14;102558.06;5058727;28;45404;-59
2022/03/26 09:31:07;;;;;;;;;57.00;41.50;;;;;15.66;38.32;102557.72;5060707;28;45534;-59
2022/03/26 09:33:33;;;;;;;;;50.50;39.75;;;;;15.75;37.86;102559.91;5058155;28;45408;-59
2022/03/26 09:35:58;;;;;;;;;53.75;42.00;;;;;15.83;38.11;102552.38;5060374;28;45294;-59
2022/03/26 09:38:23;;;;;;;;;53.25;40.25;;;;;15.89;38.07;102554.72;5058335;28;45490;-59
2022/03/26 09:40:49;;;;;;;;;49.75;37.75;;;;;15.96;37.99;102555.25;5060458;28;45568;-59
2022/03/26 09:43:16;;;;;;;;;53.25;40.75;;;;;16.04;37.83;102558.38;5058713;28;45272;-59
2022/03/26 09:45:41;;;;;;;;;47.25;38.75;;;;;16.15;37.66;102560.44;5060591;28;45322;-59
2022/03/26 09:48:07;;;;;;;;;52.50;40.25;;;;;16.23;37.46;102552.06;5057761;28;45470;-59
2022/03/26 09:50:34;;;;;;;;;54.75;40.00;;;;;16.31;37.25;102557.81;5060697;28;45403;-60
2022/03/26 09:53:00;;;;;;;;;50.50;36.00;;;;;16.40;37.08;102558.16;5070403;28;45602;-58
2022/03/26 09:55:26;;;;;;;;;54.00;42.75;;;;;16.51;37.14;102551.38;5068060;28;46160;-58
2022/03/26 09:57:52;;;;;;;;;51.00;39.75;;;;;16.58;37.08;102550.97;5060999;28;45454;-58
2022/03/26 10:00:18;;;;;;;;;50.50;38.50;;;;;16.66;36.89;102547.88;5052775;28;45447;-58
2022/03/26 10:02:44;;;;;;;;;50.25;38.25;;;;;16.72;36.55;102542.25;5051003;28;45574;-59
2022/03/26 10:05:12;;;;;;;;;47.00;38.25;;;;;16.80;36.66;102549.81;5048268;28;46349;-59
2022/03/26 10:07:38;;;;;;;;;51.00;41.50;;;;;16.89;36.61;102552.78;5051420;28;45474;-57
2022/03/26 10:10:04;;;;;;;;;51.50;37.50;;;;;16.96;36.68;102546.16;5032756;28;45316;-58
2022/03/26 10:12:30;;;;;;;;;57.50;43.00;;;;;17.05;36.18;102538.59;5052878;28;45602;-58
2022/03/26 10:15:00;;;;;;;;;50.00;37.75;;;;;17.15;35.71;102540.66;5049931;28;46277;-58
2022/03/26 10:17:30;;;;;;;;;55.25;43.00;;;;;17.23;35.34;102534.88;5046287;28;45250;-57
2022/03/26 10:19:59;;;;;;;;;54.00;42.25;;;;;17.29;35.75;102546.00;5052980;28;45482;-60
2022/03/26 10:22:35;;;;;;;;;54.75;41.00;;;;;17.39;35.36;102541.03;5050878;28;45443;-59
2022/03/26 10:25:09;;;;;;;;;47.25;35.00;;;;;17.43;34.65;102533.69;5048098;28;45698;-59
2022/03/26 10:27:49;;;;;;;;;34.50;25.75;;;;;17.43;34.63;102541.69;5051392;28;45350;-59
2022/03/26 10:30:17;;;;;;;;;53.25;42.75;;;;;17.47;35.38;102537.91;5046462;28;45428;-60
2022/03/26 10:32:49;;;;;;;;;53.25;37.50;;;;;17.52;34.38;102534.00;5047053;28;45580;-59
2022/03/26 10:35:25;;;;;;;;;55.00;39.75;;;;;17.61;34.89;102532.59;5049209;28;45336;-60
2022/03/26 10:37:58;;;;;;;;;51.00;41.25;;;;;17.70;34.23;102531.19;5051774;28;45376;-61
2022/03/26 10:40:35;;;;;;;;;49.75;39.00;;;;;17.76;34.32;102533.50;5054618;28;45554;-61
2022/03/26 10:43:08;;;;;;;;;54.75;40.00;;;;;17.82;34.30;102535.78;5049316;28;45556;-61
2022/03/26 10:45:37;;;;;;;;;55.75;39.75;;;;;17.91;34.17;102531.69;5049980;28;45442;-61
2022/03/26 10:48:09;;;;;;;;;46.25;36.25;;;;;17.98;33.53;102514.38;5048150;28;45362;-61
2022/03/26 10:50:35;;;;;;;;;56.25;42.75;;;;;18.02;33.73;102521.25;5049565;28;45381;-61
2022/03/26 10:53:13;;;;;;;;;38.75;30.75;;;;;18.07;33.12;102520.00;5049235;28;46666;-61
2022/03/26 10:55:40;;;;;;;;;51.25;41.75;;;;;18.15;32.94;102516.84;5046460;28;46262;-61
2022/03/26 10:58:07;;;;;;;;;52.50;39.25;;;;;18.24;33.02;102512.72;5049940;28;45419;-61
2022/03/26 11:00:33;;;;;;;;;50.75;39.75;;;;;18.31;32.19;102511.41;5046402;28;45506;-61
2022/03/26 11:02:59;;;;;;;;;54.00;40.00;;;;;18.38;31.69;102513.56;5050225;28;45941;-61
2022/03/26 11:05:26;;;;;;;;;51.25;41.00;;;;;18.44;32.20;102507.00;5030824;28;46276;-61